Time;durP1;ratioP1;P1;durP2;ratioP2;P2;SDS_P1;SDS_P2;PMS_P1;PMS_P2;Temp;Humidity;BMP_temperature;BMP_pressure;BME280_temperature;BME280_humidity;BME280_pressure;Samples;Min_cycle;Max_cycle;Signal;HPM_P1;HPM_P2
2022/01/19 00:01:34;;;;;;;12.25;6.28;;;4.20;99.90;;;;;;4977966;28;20481;-79
2022/01/19 00:04:00;;;;;;;14.75;5.93;;;4.20;99.90;;;;;;5017848;28;20057;-82
2022/01/19 00:06:26;;;;;;;12.07;6.65;;;4.30;99.90;;;;;;4999924;28;20389;-80
2022/01/19 00:08:52;;;;;;;11.30;8.02;;;4.20;99.90;;;;;;5003017;28;20049;-78
2022/01/19 00:11:18;;;;;;;;;;;4.20;99.90;;;;;;5035242;28;20054;-82
2022/01/19 00:13:44;;;;;;;16.08;6.43;;;4.20;99.90;;;;;;4979212;28;19964;-81
2022/01/19 00:16:17;;;;;;;6.07;4.43;;;4.10;99.90;;;;;;4973786;28;20072;-78
2022/01/19 00:18:43;;;;;;;15.85;6.18;;;4.30;99.90;;;;;;4989199;28;20042;-83
2022/01/19 00:21:09;;;;;;;10.43;7.97;;;4.20;99.90;;;;;;5014437;28;20096;-80
2022/01/19 00:23:35;;;;;;;12.57;6.40;;;4.10;99.90;;;;;;4984953;28;20484;-84
2022/01/19 00:26:00;;;;;;;12.90;6.55;;;4.20;99.90;;;;;;5012041;28;20042;-83
2022/01/19 00:28:27;;;;;;;14.88;7.68;;;4.10;99.90;;;;;;4988537;28;20478;-83
2022/01/19 00:30:53;;;;;;;14.15;6.28;;;4.10;99.90;;;;;;5051157;28;20415;-82
2022/01/19 00:33:19;;;;;;;14.25;7.55;;;4.10;99.90;;;;;;4995494;28;20543;-78
2022/01/19 00:35:46;;;;;;;10.35;5.63;;;4.10;99.90;;;;;;4972813;28;20088;-80
2022/01/19 00:38:12;;;;;;;16.00;6.35;;;4.00;99.90;;;;;;4989239;28;20118;-78
2022/01/19 00:40:39;;;;;;;18.92;6.88;;;4.10;99.90;;;;;;4965349;28;20535;-79
2022/01/19 00:43:06;;;;;;;13.98;5.18;;;4.00;99.90;;;;;;4989204;28;20084;-81
2022/01/19 00:45:32;;;;;;;14.75;5.47;;;4.10;99.90;;;;;;4989266;28;20255;-82
2022/01/19 00:47:58;;;;;;;8.75;5.47;;;4.00;99.90;;;;;;5066381;28;20039;-81
2022/01/19 00:50:27;;;;;;;12.32;5.88;;;3.90;99.90;;;;;;4989149;28;20137;-79
2022/01/19 00:52:53;;;;;;;11.27;5.15;;;4.00;99.90;;;;;;4979021;28;20034;-80
2022/01/19 00:55:22;;;;;;;15.65;5.85;;;4.30;99.90;;;;;;5017856;28;20060;-81
2022/01/19 00:57:48;;;;;;;10.40;4.57;;;4.00;99.90;;;;;;4983801;28;20184;-80
2022/01/19 01:00:21;;;;;;;9.27;5.65;;;3.90;99.90;;;;;;4999813;28;20073;-78
2022/01/19 01:02:47;;;;;;;8.07;6.13;;;3.60;99.90;;;;;;4981986;28;20418;-81
2022/01/19 01:05:13;;;;;;;17.27;7.72;;;3.90;99.90;;;;;;5016386;28;20042;-77
2022/01/19 01:07:40;;;;;;;14.18;5.47;;;3.90;99.90;;;;;;4988552;28;20052;-79
2022/01/19 01:10:08;;;;;;;11.07;5.78;;;3.80;99.90;;;;;;4975684;28;20058;-82
2022/01/19 01:15:37;;;;;;;18.45;6.78;;;3.80;99.90;;;;;;5052645;28;20050;-80
2022/01/19 01:20:37;;;;;;;9.52;7.30;;;3.80;99.90;;;;;;4982433;28;20070;-82
2022/01/19 01:23:05;;;;;;;12.45;6.55;;;3.80;99.90;;;;;;4986774;28;20038;-80
2022/01/19 01:25:31;;;;;;;20.42;8.85;;;3.80;99.90;;;;;;4980308;28;20408;-79
2022/01/19 01:27:56;;;;;;;15.85;7.47;;;3.70;99.90;;;;;;4970931;28;20147;-80
2022/01/19 01:30:22;;;;;;;17.08;7.07;;;3.80;99.90;;;;;;4989312;28;20125;-80
2022/01/19 01:32:48;;;;;;;20.83;7.75;;;3.80;99.90;;;;;;4988870;28;20446;-80
2022/01/19 01:35:13;;;;;;;18.42;8.35;;;3.70;99.90;;;;;;4989264;28;20051;-81
2022/01/19 01:37:39;;;;;;;11.80;6.30;;;3.80;99.90;;;;;;4988262;28;20042;-82
2022/01/19 01:40:08;;;;;;;15.70;8.82;;;3.70;99.90;;;;;;4983736;28;20056;-78
2022/01/19 01:42:34;;;;;;;12.85;7.75;;;3.80;99.90;;;;;;4989060;28;20395;-80
2022/01/19 01:45:01;;;;;;;13.15;6.78;;;3.70;99.90;;;;;;4988970;28;20082;-82
2022/01/19 01:47:28;;;;;;;15.48;7.72;;;3.70;99.90;;;;;;4980237;28;20043;-82
2022/01/19 01:55:16;;;;;;;19.33;8.43;;;3.70;99.90;;;;;;5073405;28;20057;-83
2022/01/19 01:57:41;;;;;;;10.80;6.72;;;3.80;99.90;;;;;;4977591;28;20050;-81
2022/01/19 02:00:11;;;;;;;15.05;7.35;;;3.70;99.90;;;;;;5036950;28;20090;-82
2022/01/19 02:02:39;;;;;;;12.30;6.93;;;3.70;99.90;;;;;;5073749;28;20043;-82
2022/01/19 02:05:09;;;;;;;15.02;7.78;;;3.80;99.90;;;;;;4997790;28;20053;-81
2022/01/19 02:08:00;;;;;;;19.80;5.93;;;3.70;99.90;;;;;;4971096;28;20050;-79
2022/01/19 02:10:38;;;;;;;20.55;7.68;;;3.70;99.90;;;;;;4986012;28;20078;-82
2022/01/19 02:21:39;;;;;;;12.30;7.30;;;3.70;99.90;;;;;;4998731;28;20108;-83
2022/01/19 02:24:08;;;;;;;12.90;7.85;;;3.70;99.90;;;;;;4985181;28;20046;-80
2022/01/19 02:42:42;;;;;;;18.75;11.25;;;3.80;99.90;;;;;;5029068;28;19933;-79
2022/01/19 02:50:25;;;;;;;19.20;8.82;;;3.90;99.90;;;;;;4978108;28;20046;-80
2022/01/19 02:52:50;;;;;;;15.07;7.70;;;4.00;99.90;;;;;;4987221;28;20050;-79
2022/01/19 02:55:16;;;;;;;9.43;6.90;;;3.90;99.90;;;;;;4983864;28;20073;-80
2022/01/19 02:57:45;;;;;;;17.92;7.50;;;4.00;99.90;;;;;;4984567;28;20105;-81
2022/01/19 03:08:44;;;;;;;28.38;7.00;;;4.00;99.90;;;;;;4985782;28;20651;-81
2022/01/19 03:11:10;;;;;;;16.17;7.82;;;3.90;99.90;;;;;;4987682;28;20045;-82
2022/01/19 03:13:38;;;;;;;17.10;8.18;;;4.00;99.90;;;;;;5055413;28;20051;-81
2022/01/19 03:16:04;;;;;;;19.95;9.10;;;4.00;99.90;;;;;;4979909;28;20100;-82
2022/01/19 03:18:30;;;;;;;30.45;9.88;;;4.00;99.90;;;;;;4968320;28;20050;-82
2022/01/19 03:20:56;;;;;;;18.05;8.80;;;4.00;99.90;;;;;;4980678;28;20061;-80
2022/01/19 03:23:21;;;;;;;30.20;9.90;;;4.00;99.90;;;;;;4979418;28;20064;-79
2022/01/19 03:25:48;;;;;;;38.85;9.48;;;4.00;99.90;;;;;;5085696;28;20141;-80
2022/01/19 03:28:14;;;;;;;18.80;7.35;;;4.00;99.90;;;;;;4989755;28;20533;-82
2022/01/19 03:30:41;;;;;;;23.60;11.10;;;4.00;99.90;;;;;;4971811;28;20043;-83
2022/01/19 03:33:07;;;;;;;25.48;8.95;;;4.00;99.90;;;;;;4998360;28;20171;-82
2022/01/19 03:35:33;;;;;;;18.38;9.25;;;3.80;99.90;;;;;;4973284;28;20421;-81
2022/01/19 03:37:58;;;;;;;17.45;8.50;;;3.90;99.90;;;;;;4985317;28;20176;-82
2022/01/19 03:40:24;;;;;;;18.45;8.93;;;4.10;99.90;;;;;;4972102;28;20035;-82
2022/01/19 03:42:50;;;;;;;18.95;7.50;;;4.00;99.90;;;;;;4989148;28;20046;-79
2022/01/19 03:45:17;;;;;;;18.08;7.88;;;4.00;99.90;;;;;;4988713;28;20055;-80
2022/01/19 03:47:51;;;;;;;14.20;6.65;;;3.90;99.90;;;;;;4988848;28;20043;-80
2022/01/19 03:50:16;;;;;;;9.70;7.70;;;3.90;99.90;;;;;;4968894;28;20054;-81
2022/01/19 03:52:42;;;;;;;21.48;8.50;;;4.00;99.90;;;;;;5043376;28;20034;-79
2022/01/19 03:55:08;;;;;;;23.45;10.20;;;3.90;99.90;;;;;;4947010;28;20054;-80
2022/01/19 03:57:35;;;;;;;21.02;10.77;;;3.90;99.90;;;;;;4992776;28;20054;-79
2022/01/19 04:00:01;;;;;;;15.65;8.25;;;4.00;99.90;;;;;;5056146;28;20072;-83
2022/01/19 04:02:27;;;;;;;21.52;9.80;;;3.90;99.90;;;;;;4990716;28;20141;-78
2022/01/19 04:05:03;;;;;;;;;;;3.90;99.90;;;;;;5069938;28;20543;-79
2022/01/19 04:07:28;;;;;;;25.27;9.68;;;3.80;99.90;;;;;;4992508;28;19953;-81
2022/01/19 04:09:54;;;;;;;29.08;10.95;;;3.90;99.90;;;;;;5043621;28;20197;-80
2022/01/19 04:12:40;;;;;;;21.35;8.48;;;4.10;99.90;;;;;;5023597;28;20049;-82
2022/01/19 04:15:06;;;;;;;18.67;9.98;;;3.90;99.90;;;;;;4988683;28;20328;-81
2022/01/19 04:17:32;;;;;;;;;;;3.80;99.90;;;;;;4991027;28;20038;-80
2022/01/19 04:19:58;;;;;;;16.58;10.70;;;3.90;99.90;;;;;;4973850;28;20283;-80
2022/01/19 04:22:23;;;;;;;21.90;9.00;;;3.80;99.90;;;;;;5037839;28;20034;-81
2022/01/19 04:24:49;;;;;;;23.27;7.97;;;3.80;99.90;;;;;;4975582;28;20411;-81
2022/01/19 04:30:05;;;;;;;27.98;8.13;;;3.90;99.90;;;;;;4989974;28;20052;-80
2022/01/19 04:35:11;;;;;;;25.10;9.88;;;3.70;99.90;;;;;;5012566;28;20054;-81
2022/01/19 05:04:34;;;;;;;27.02;9.93;;;3.80;99.90;;;;;;5074652;28;20043;-82
2022/01/19 05:07:23;;;;;;;20.70;9.45;;;3.80;99.90;;;;;;5054486;28;20085;-82
2022/01/19 05:15:13;;;;;;;20.35;8.30;;;3.80;99.90;;;;;;4989402;28;20123;-81
2022/01/19 05:17:39;;;;;;;20.33;8.82;;;3.80;99.90;;;;;;4990054;28;20471;-83
2022/01/19 05:20:07;;;;;;;12.00;6.10;;;3.70;99.90;;;;;;4986236;28;20038;-79
2022/01/19 05:22:34;;;;;;;25.52;11.25;;;3.80;99.90;;;;;;4986257;28;20141;-81
2022/01/19 05:25:00;;;;;;;24.00;9.07;;;3.80;99.90;;;;;;4988214;28;20035;-82
2022/01/19 05:27:26;;;;;;;;;;;3.80;99.90;;;;;;4975618;28;20046;-83
2022/01/19 05:29:52;;;;;;;19.85;8.55;;;3.80;99.90;;;;;;4970878;28;19952;-81
2022/01/19 05:32:18;;;;;;;17.10;7.88;;;3.80;99.90;;;;;;4995735;28;20042;-79
2022/01/19 05:34:44;;;;;;;16.73;9.48;;;3.80;99.90;;;;;;5005303;28;20408;-80
2022/01/19 05:37:10;;;;;;;14.48;6.50;;;3.80;99.90;;;;;;5005883;28;20054;-79
2022/01/19 05:39:36;;;;;;;;;;;3.80;99.90;;;;;;4999531;28;20127;-81
2022/01/19 05:42:02;;;;;;;15.82;8.20;;;3.80;99.90;;;;;;4987615;28;19917;-83
2022/01/19 05:44:27;;;;;;;;;;;3.80;99.90;;;;;;4973728;28;20062;-81
2022/01/19 05:46:53;;;;;;;16.60;9.93;;;3.80;99.90;;;;;;5058332;28;19918;-82
2022/01/19 05:49:19;;;;;;;23.13;8.55;;;3.80;99.90;;;;;;4956838;28;20042;-80
2022/01/19 05:51:45;;;;;;;16.40;8.55;;;3.80;99.90;;;;;;4999682;28;20039;-81
2022/01/19 05:54:10;;;;;;;;;;;3.80;99.90;;;;;;4985764;28;20050;-82
2022/01/19 05:56:36;;;;;;;14.45;8.50;;;3.80;99.90;;;;;;4988798;28;19922;-82
2022/01/19 05:59:02;;;;;;;16.92;7.15;;;3.80;99.90;;;;;;4994638;28;20042;-81
2022/01/19 06:01:28;;;;;;;19.58;8.35;;;3.80;99.90;;;;;;4973504;28;20043;-81
2022/01/19 06:03:54;;;;;;;15.23;7.50;;;3.80;99.90;;;;;;5015480;28;20472;-81
2022/01/19 06:06:19;;;;;;;13.63;6.57;;;3.70;99.90;;;;;;4991074;28;20038;-79
2022/01/19 06:08:49;;;;;;;15.85;7.70;;;3.70;99.90;;;;;;4990573;28;20042;-80
2022/01/19 06:11:16;;;;;;;16.48;6.20;;;3.80;99.90;;;;;;5004356;28;20431;-83
2022/01/19 06:13:42;;;;;;;14.15;5.43;;;3.70;99.90;;;;;;5051544;28;20553;-81
2022/01/19 06:16:09;;;;;;;18.60;7.53;;;3.70;99.90;;;;;;4973056;28;20050;-81
2022/01/19 06:18:35;;;;;;;16.83;7.72;;;3.80;99.90;;;;;;5049308;28;20053;-83
2022/01/19 06:21:00;;;;;;;18.52;7.88;;;3.60;99.90;;;;;;5055399;28;20038;-82
2022/01/19 06:23:26;;;;;;;14.73;6.93;;;3.70;99.90;;;;;;4986053;28;20088;-83
2022/01/19 06:25:53;;;;;;;17.23;8.90;;;3.70;99.90;;;;;;5056405;28;20408;-79
2022/01/19 06:28:19;;;;;;;13.35;7.97;;;3.70;99.90;;;;;;4973289;28;20042;-82
2022/01/19 06:30:44;;;;;;;15.95;9.02;;;3.70;99.90;;;;;;4973719;28;20050;-82
2022/01/19 06:33:10;;;;;;;29.63;9.90;;;3.70;99.90;;;;;;5010836;28;20074;-81
2022/01/19 06:35:36;;;;;;;12.15;7.88;;;3.70;99.90;;;;;;4996160;28;20050;-83
2022/01/19 06:38:02;;;;;;;24.73;10.82;;;3.70;99.90;;;;;;4989637;28;20039;-83
2022/01/19 06:40:29;;;;;;;16.67;8.23;;;3.70;99.90;;;;;;5005393;28;20118;-83
2022/01/19 06:42:56;;;;;;;9.35;6.20;;;3.70;99.90;;;;;;5011962;28;20052;-80
2022/01/19 06:45:22;;;;;;;11.10;7.20;;;3.70;99.90;;;;;;4978748;28;20035;-82
2022/01/19 06:47:48;;;;;;;30.48;10.07;;;3.70;99.90;;;;;;4972972;28;20391;-80
2022/01/19 06:50:19;;;;;;;13.15;7.65;;;3.70;99.90;;;;;;4988870;28;20042;-82
2022/01/19 06:52:45;;;;;;;24.52;6.43;;;3.70;99.90;;;;;;4988531;28;20129;-81
2022/01/19 06:55:11;;;;;;;15.75;7.65;;;3.70;99.90;;;;;;4987161;28;20099;-80
2022/01/19 06:57:37;;;;;;;18.02;8.18;;;3.90;99.90;;;;;;5018932;28;20046;-81
2022/01/19 07:00:04;;;;;;;19.17;10.20;;;3.70;99.90;;;;;;5057927;28;20077;-83
2022/01/19 07:02:30;;;;;;;18.13;9.27;;;3.80;99.90;;;;;;5004279;28;20034;-80
2022/01/19 07:04:56;;;;;;;10.88;6.63;;;3.70;99.90;;;;;;4987377;28;20042;-81
2022/01/19 07:07:22;;;;;;;12.50;6.80;;;3.80;99.90;;;;;;4983749;28;20121;-83
2022/01/19 07:09:49;;;;;;;24.67;9.95;;;3.70;99.90;;;;;;4988345;28;20042;-82
2022/01/19 07:12:15;;;;;;;20.88;8.73;;;3.70;99.90;;;;;;4972915;28;20054;-84
2022/01/19 07:14:41;;;;;;;17.75;9.35;;;3.70;99.90;;;;;;5062217;28;20493;-81
2022/01/19 07:17:07;;;;;;;24.77;10.23;;;3.70;99.90;;;;;;5016544;28;20053;-80
2022/01/19 07:19:33;;;;;;;15.95;9.30;;;3.70;99.90;;;;;;5050991;28;20054;-80
2022/01/19 07:22:00;;;;;;;19.15;9.23;;;3.80;99.90;;;;;;4995847;28;20040;-81
2022/01/19 07:24:27;;;;;;;20.58;8.80;;;3.80;99.90;;;;;;5048217;28;20476;-83
2022/01/19 07:26:52;;;;;;;;;;;3.80;99.90;;;;;;4968837;28;20050;-79
2022/01/19 07:29:18;;;;;;;15.40;7.55;;;5.00;99.90;;;;;;4985166;28;19929;-80
2022/01/19 07:31:44;;;;;;;22.15;10.07;;;5.10;99.90;;;;;;4990026;28;20428;-78
2022/01/19 07:34:10;;;;;;;18.73;9.30;;;5.40;99.90;;;;;;5057474;28;20042;-80
2022/01/19 07:36:36;;;;;;;13.82;6.43;;;3.80;99.90;;;;;;4989595;28;20058;-82
2022/01/19 07:39:02;;;;;;;;;;;3.80;99.90;;;;;;4989108;28;20039;-80
2022/01/19 07:41:28;;;;;;;18.63;9.60;;;3.80;99.90;;;;;;4988337;28;19925;-83
2022/01/19 07:43:53;;;;;;;13.23;8.25;;;3.80;99.90;;;;;;4988388;28;20042;-79
2022/01/19 07:46:19;;;;;;;17.60;7.55;;;4.70;99.90;;;;;;4987442;28;20074;-77
2022/01/19 07:48:45;;;;;;;24.10;8.02;;;3.60;99.90;;;;;;4979700;28;20070;-84
2022/01/19 07:51:11;;;;;;;16.02;6.85;;;4.00;99.90;;;;;;5021530;28;20495;-80
2022/01/19 07:53:37;;;;;;;14.82;7.82;;;3.80;99.90;;;;;;5002986;28;20046;-81
2022/01/19 07:56:04;;;;;;;10.95;7.43;;;3.80;99.90;;;;;;4968812;28;20039;-81
2022/01/19 07:58:30;;;;;;;11.40;7.05;;;3.80;99.90;;;;;;4976345;28;20621;-79
2022/01/19 08:00:56;;;;;;;20.02;9.30;;;3.80;99.90;;;;;;5037813;28;20192;-77
2022/01/19 08:03:22;;;;;;;18.95;8.05;;;3.80;99.90;;;;;;5067440;28;20625;-82
2022/01/19 08:05:49;;;;;;;9.15;6.00;;;3.80;99.90;;;;;;4989953;28;20053;-84
2022/01/19 08:08:16;;;;;;;24.35;7.75;;;3.80;99.90;;;;;;4980685;28;20089;-79
2022/01/19 08:10:45;;;;;;;10.27;6.55;;;3.80;99.90;;;;;;4990997;28;20077;-80
2022/01/19 08:13:14;;;;;;;17.25;7.57;;;3.80;99.90;;;;;;4995873;28;20113;-76
2022/01/19 08:15:42;;;;;;;14.13;7.65;;;3.80;99.90;;;;;;4992761;28;20054;-80
2022/01/19 08:18:11;;;;;;;14.02;8.18;;;3.80;99.90;;;;;;5038002;28;20058;-80
2022/01/19 08:20:40;;;;;;;;;;;3.90;99.90;;;;;;4972740;28;20104;-78
2022/01/19 08:23:06;;;;;;;20.85;10.50;;;3.90;99.90;;;;;;5003077;28;19925;-80
2022/01/19 08:25:32;;;;;;;;;;;4.00;99.90;;;;;;5037522;28;20038;-77
2022/01/19 08:27:58;;;;;;;26.25;10.48;;;4.00;99.90;;;;;;4994026;28;20371;-81
2022/01/19 08:30:23;;;;;;;15.05;7.10;;;4.10;99.90;;;;;;4987722;28;20063;-78
2022/01/19 08:32:49;;;;;;;10.35;7.05;;;4.10;99.90;;;;;;4987416;28;20046;-78
2022/01/19 08:35:15;;;;;;;18.40;8.18;;;4.10;99.90;;;;;;4984806;28;20794;-77
2022/01/19 08:37:41;;;;;;;15.32;9.70;;;4.10;99.90;;;;;;5037407;28;20042;-80
2022/01/19 08:40:08;;;;;;;21.27;10.50;;;4.20;99.90;;;;;;5056602;28;20078;-81
2022/01/19 08:42:35;;;;;;;21.02;9.27;;;4.20;99.90;;;;;;5087990;28;20380;-81
2022/01/19 08:45:05;;;;;;;18.08;9.40;;;4.20;99.90;;;;;;5012575;28;20047;-81
2022/01/19 08:47:32;;;;;;;27.17;10.32;;;4.70;99.90;;;;;;4966967;28;20445;-82
2022/01/19 08:49:58;;;;;;;17.05;7.38;;;4.00;99.90;;;;;;4997550;28;20480;-81
2022/01/19 08:52:24;;;;;;;16.83;8.95;;;4.30;99.90;;;;;;5058364;28;20100;-79
2022/01/19 08:54:50;;;;;;;26.55;9.93;;;4.40;99.90;;;;;;4986797;28;20047;-77
2022/01/19 08:57:17;;;;;;;14.70;7.30;;;4.50;99.90;;;;;;4970977;28;20129;-79
2022/01/19 08:59:43;;;;;;;14.13;6.85;;;4.60;99.90;;;;;;4988057;28;20050;-80
2022/01/19 09:02:10;;;;;;;20.60;9.68;;;4.60;99.90;;;;;;4997125;28;20091;-80
2022/01/19 09:04:35;;;;;;;18.38;9.98;;;4.70;99.90;;;;;;5019868;28;20060;-77
2022/01/19 09:07:02;;;;;;;12.98;6.65;;;4.70;99.90;;;;;;4977093;28;20054;-79
2022/01/19 09:09:28;;;;;;;22.02;11.23;;;4.70;99.90;;;;;;5018456;28;20137;-77
2022/01/19 09:11:53;;;;;;;20.95;11.60;;;4.80;99.90;;;;;;4988233;28;20520;-80
2022/01/19 09:14:19;;;;;;;21.63;11.63;;;4.80;99.90;;;;;;5072230;28;20038;-79
2022/01/19 09:16:49;;;;;;;17.80;11.07;;;4.80;99.90;;;;;;4987807;28;20058;-78
2022/01/19 09:19:17;;;;;;;22.90;9.77;;;4.90;99.90;;;;;;4988162;28;20121;-78
2022/01/19 09:21:43;;;;;;;24.42;9.23;;;4.80;99.90;;;;;;5010716;28;20519;-78
2022/01/19 09:24:10;;;;;;;21.95;10.02;;;4.90;99.90;;;;;;4990561;28;20196;-81
2022/01/19 09:26:37;;;;;;;25.60;10.57;;;4.90;99.90;;;;;;4987166;28;20073;-79
2022/01/19 09:29:04;;;;;;;20.55;11.35;;;4.90;99.90;;;;;;4991724;28;20138;-77
2022/01/19 09:31:30;;;;;;;18.40;10.43;;;5.00;99.90;;;;;;4989285;28;20521;-79
2022/01/19 09:34:07;;;;;;;16.33;8.68;;;5.00;99.90;;;;;;4986548;28;20050;-80
2022/01/19 09:36:44;;;;;;;21.60;9.95;;;4.90;99.90;;;;;;4987395;28;20500;-82
2022/01/19 09:39:11;;;;;;;21.35;12.65;;;5.20;99.90;;;;;;4982530;28;20141;-80
2022/01/19 09:41:38;;;;;;;11.20;7.20;;;5.10;99.90;;;;;;4987507;28;20640;-77
2022/01/19 09:44:03;;;;;;;;;;;5.00;99.90;;;;;;4989132;28;20043;-78
2022/01/19 09:46:29;;;;;;;20.00;9.38;;;5.00;99.90;;;;;;4970645;28;20351;-78
2022/01/19 09:48:56;;;;;;;;;;;5.10;99.90;;;;;;4971053;28;20049;-80
2022/01/19 09:51:22;;;;;;;19.05;8.43;;;5.10;99.90;;;;;;5003270;28;19921;-78
2022/01/19 09:53:48;;;;;;;15.32;8.18;;;5.10;99.90;;;;;;4986346;28;20039;-77
2022/01/19 09:56:20;;;;;;;18.13;9.80;;;5.10;99.90;;;;;;5058631;28;20042;-79
2022/01/19 09:58:47;;;;;;;21.33;10.98;;;5.10;99.90;;;;;;4992716;28;20363;-81
2022/01/19 10:01:23;;;;;;;18.48;8.07;;;5.00;99.90;;;;;;5007469;28;20045;-79
2022/01/19 10:03:49;;;;;;;;;;;5.00;99.90;;;;;;4989086;28;20050;-84
2022/01/19 10:06:23;;;;;;;26.95;11.32;;;5.00;99.90;;;;;;5004864;28;19929;-81
2022/01/19 10:08:56;;;;;;;18.17;9.02;;;5.00;99.90;;;;;;4996605;28;20085;-81
2022/01/19 10:17:06;;;;;;;14.75;9.68;;;5.00;99.90;;;;;;5081472;28;20061;-79
2022/01/19 10:19:57;;;;;;;23.48;11.38;;;4.90;99.90;;;;;;5054904;28;20057;-77
2022/01/19 10:22:27;;;;;;;12.57;7.80;;;4.90;99.90;;;;;;4993110;28;20664;-81
2022/01/19 10:25:04;;;;;;;34.20;10.25;;;4.80;99.90;;;;;;4987421;28;20046;-83
2022/01/19 10:27:38;;;;;;;15.35;10.02;;;5.60;99.90;;;;;;5001977;28;20065;-81
2022/01/19 10:30:04;;;;;;;28.83;13.10;;;5.70;99.90;;;;;;5002399;28;20625;-78
2022/01/19 10:32:52;;;;;;;20.77;8.32;;;4.80;99.90;;;;;;4988060;28;20122;-85
2022/01/19 10:35:18;;;;;;;14.68;8.98;;;4.80;99.90;;;;;;4982030;28;20179;-77
2022/01/19 10:37:46;;;;;;;19.65;12.82;;;4.50;99.90;;;;;;4981108;28;20485;-80
2022/01/19 10:40:20;;;;;;;30.02;12.40;;;4.80;99.90;;;;;;4988654;28;20138;-80
2022/01/19 10:42:47;;;;;;;18.02;10.10;;;4.80;99.90;;;;;;4986608;28;20110;-81
2022/01/19 10:45:15;;;;;;;18.92;10.60;;;4.90;99.90;;;;;;4970720;28;20046;-83
2022/01/19 10:47:44;;;;;;;25.92;13.40;;;4.90;99.90;;;;;;4983182;28;20042;-82
2022/01/19 10:50:12;;;;;;;23.05;11.82;;;4.80;99.90;;;;;;4971169;28;20042;-80
2022/01/19 10:52:44;;;;;;;26.90;14.18;;;5.70;99.90;;;;;;4998078;28;20050;-79
2022/01/19 10:55:29;;;;;;;29.30;13.93;;;4.90;99.90;;;;;;5019884;28;20049;-79
2022/01/19 10:57:57;;;;;;;27.60;14.40;;;4.90;99.90;;;;;;5002986;28;20384;-77
2022/01/19 11:00:28;;;;;;;28.35;14.23;;;4.90;99.90;;;;;;4987776;28;20049;-84
2022/01/19 11:03:15;;;;;;;16.95;11.13;;;4.90;99.90;;;;;;4999433;28;20046;-82
2022/01/19 11:05:41;;;;;;;17.40;10.82;;;4.90;99.90;;;;;;4969408;28;20078;-77
2022/01/19 11:08:06;;;;;;;25.35;11.57;;;4.90;99.90;;;;;;4986894;28;20089;-78
2022/01/19 11:10:32;;;;;;;20.77;10.65;;;4.90;99.90;;;;;;4984162;28;20057;-78
2022/01/19 11:12:59;;;;;;;26.00;12.88;;;5.00;99.90;;;;;;4984322;28;20042;-80
2022/01/19 11:15:26;;;;;;;31.35;13.27;;;5.00;99.90;;;;;;4956001;28;20342;-80
2022/01/19 11:17:53;;;;;;;29.13;12.18;;;5.00;99.90;;;;;;4974123;28;20168;-78
2022/01/19 11:20:23;;;;;;;35.80;14.77;;;5.00;99.90;;;;;;4969541;28;20042;-80
2022/01/19 11:23:16;;;;;;;23.00;13.10;;;5.00;99.90;;;;;;4991590;28;20411;-77
2022/01/19 11:25:52;;;;;;;21.20;12.32;;;5.10;99.90;;;;;;4957001;28;20073;-78
2022/01/19 11:28:29;;;;;;;20.23;11.43;;;5.20;99.90;;;;;;4989269;28;20041;-80
2022/01/19 11:30:55;;;;;;;21.77;12.27;;;5.20;99.90;;;;;;5055564;28;20043;-78
2022/01/19 11:33:27;;;;;;;20.05;11.40;;;5.30;99.90;;;;;;5033018;28;20807;-81
2022/01/19 11:35:54;;;;;;;14.55;10.60;;;5.40;99.90;;;;;;4962852;28;20054;-78
2022/01/19 11:38:31;;;;;;;25.83;12.52;;;5.50;99.90;;;;;;4966524;28;20051;-78
2022/01/19 11:40:58;;;;;;;22.85;13.50;;;5.60;99.90;;;;;;5034185;28;20043;-76
2022/01/19 11:43:29;;;;;;;27.67;13.75;;;5.60;99.90;;;;;;4961475;28;20066;-77
2022/01/19 11:45:56;;;;;;;26.25;13.77;;;5.70;99.90;;;;;;4956376;28;20132;-78
2022/01/19 11:48:28;;;;;;;19.38;10.73;;;6.00;99.90;;;;;;4943668;28;20395;-77
2022/01/19 11:51:15;;;;;;;20.45;9.73;;;5.90;99.90;;;;;;4990300;28;20625;-79
2022/01/19 11:54:29;;;;;;;23.15;11.63;;;5.90;99.90;;;;;;4978568;28;20418;-80
2022/01/19 11:57:02;;;;;;;20.17;11.35;;;6.00;99.90;;;;;;4932302;28;20051;-77
2022/01/19 11:59:32;;;;;;;23.15;11.70;;;5.90;99.90;;;;;;4988766;28;20062;-80
2022/01/19 12:02:23;;;;;;;21.15;10.35;;;6.00;99.90;;;;;;4967406;28;20621;-76
2022/01/19 12:04:54;;;;;;;23.98;11.25;;;5.90;99.90;;;;;;4944470;28;20058;-76
2022/01/19 12:07:40;;;;;;;17.25;9.80;;;5.90;99.90;;;;;;4994265;28;20050;-74
2022/01/19 12:10:07;;;;;;;19.85;10.43;;;5.90;99.90;;;;;;4965005;28;20046;-78
2022/01/19 12:12:39;;;;;;;27.42;12.82;;;5.90;99.90;;;;;;4966051;28;20057;-77
2022/01/19 12:15:08;;;;;;;22.65;12.88;;;5.90;99.90;;;;;;4975533;28;20063;-80
2022/01/19 12:18:00;;;;;;;16.80;10.57;;;5.60;99.90;;;;;;4968472;28;20047;-80
2022/01/19 12:20:55;;;;;;;20.10;9.82;;;5.80;99.90;;;;;;4984787;28;20053;-76
2022/01/19 12:23:25;;;;;;;27.25;12.02;;;5.80;99.90;;;;;;4961124;28;20054;-76
2022/01/19 12:25:56;;;;;;;18.02;10.18;;;5.80;99.90;;;;;;4983775;28;20062;-80
2022/01/19 12:28:44;;;;;;;16.98;10.45;;;5.80;99.90;;;;;;4988739;28;20045;-77
2022/01/19 12:31:25;;;;;;;19.08;11.18;;;5.80;99.90;;;;;;4966948;28;20376;-80
2022/01/19 12:34:09;;;;;;;21.92;10.27;;;5.70;99.90;;;;;;5066940;28;20648;-78
2022/01/19 12:36:49;;;;;;;13.93;10.45;;;5.70;99.90;;;;;;4978870;28;20605;-78
2022/01/19 12:39:26;;;;;;;26.40;13.27;;;5.70;99.90;;;;;;4965418;28;20081;-84
2022/01/19 12:42:02;;;;;;;24.02;12.45;;;5.70;99.90;;;;;;4991462;28;20043;-78
2022/01/19 12:44:39;;;;;;;20.33;11.77;;;5.70;99.90;;;;;;5052328;28;20430;-75
2022/01/19 12:47:26;;;;;;;16.75;10.07;;;5.60;99.90;;;;;;4997934;28;20093;-78
2022/01/19 12:49:56;;;;;;;24.85;11.02;;;5.60;99.90;;;;;;4999190;28;20057;-78
2022/01/19 12:52:28;;;;;;;28.38;9.45;;;5.60;99.90;;;;;;4969583;28;20100;-77
2022/01/19 12:54:55;;;;;;;27.38;11.18;;;5.70;99.90;;;;;;5036037;28;20100;-79
2022/01/19 12:57:21;;;;;;;26.75;11.55;;;5.70;99.90;;;;;;5044971;28;20051;-77
2022/01/19 12:59:50;;;;;;;25.88;14.45;;;5.80;99.90;;;;;;4997364;28;20078;-76
2022/01/19 13:02:20;;;;;;;21.42;12.35;;;5.80;99.90;;;;;;4974604;28;20047;-75
2022/01/19 13:04:47;;;;;;;23.85;12.90;;;5.80;99.90;;;;;;5005888;28;20392;-81
2022/01/19 13:07:26;;;;;;;21.52;10.60;;;5.80;99.90;;;;;;4966329;28;20069;-81
2022/01/19 13:13:23;;;;;;;21.52;9.90;;;5.80;99.90;;;;;;4979373;28;20147;-75
2022/01/19 13:16:08;;;;;;;29.83;14.05;;;5.80;99.90;;;;;;4967777;28;20055;-80
2022/01/19 13:18:38;;;;;;;18.58;9.02;;;6.70;99.90;;;;;;4985950;28;20047;-78
2022/01/19 13:21:11;;;;;;;21.08;10.52;;;5.80;99.90;;;;;;4982655;28;20077;-81
2022/01/19 13:23:52;;;;;;;12.68;9.43;;;5.70;99.90;;;;;;4977307;28;20141;-76
2022/01/19 13:26:18;;;;;;;18.48;11.32;;;5.70;99.90;;;;;;4961427;28;20053;-80
2022/01/19 13:28:44;;;;;;;21.70;10.93;;;5.70;99.90;;;;;;4968071;28;20058;-79
2022/01/19 13:31:17;;;;;;;32.05;15.00;;;5.70;99.90;;;;;;4983748;28;20583;-80
2022/01/19 13:33:53;;;;;;;23.88;10.75;;;5.70;99.90;;;;;;4980434;28;20047;-81
2022/01/19 13:36:31;;;;;;;13.80;9.27;;;5.70;99.90;;;;;;4993130;28;20074;-76
2022/01/19 13:38:58;;;;;;;17.60;8.73;;;5.70;99.90;;;;;;4969276;28;20245;-82
2022/01/19 13:41:24;;;;;;;16.60;9.30;;;5.60;99.90;;;;;;4971229;28;20042;-79
2022/01/19 13:43:51;;;;;;;25.27;10.57;;;5.50;99.90;;;;;;4968764;28;20099;-78
2022/01/19 13:46:26;;;;;;;14.55;8.50;;;5.60;99.90;;;;;;4969032;28;20067;-77
2022/01/19 13:49:00;;;;;;;18.83;11.68;;;5.60;99.90;;;;;;4951983;28;20073;-78
2022/01/19 13:51:27;;;;;;;15.38;8.73;;;5.60;99.90;;;;;;4970080;28;20553;-84
2022/01/19 13:53:54;;;;;;;16.23;10.02;;;5.60;99.90;;;;;;4968962;28;20073;-79
2022/01/19 13:56:38;;;;;;;25.67;8.43;;;5.50;99.90;;;;;;5052390;28;20043;-82
2022/01/19 13:59:17;;;;;;;19.92;11.02;;;5.50;99.90;;;;;;5047100;28;20046;-79
2022/01/19 14:01:51;;;;;;;21.30;9.77;;;5.40;99.90;;;;;;5006384;28;20043;-77
2022/01/19 14:04:17;;;;;;;14.45;8.13;;;5.40;99.90;;;;;;4978882;28;20058;-80
2022/01/19 14:06:44;;;;;;;;;;;5.40;99.90;;;;;;4953350;28;20046;-83
2022/01/19 14:09:26;;;;;;;22.90;10.80;;;5.40;99.90;;;;;;4977250;28;19922;-84
2022/01/19 14:12:11;;;;;;;17.38;9.10;;;5.40;99.90;;;;;;4948610;28;20046;-79
2022/01/19 14:14:56;;;;;;;16.08;9.07;;;5.30;99.90;;;;;;4973337;28;20052;-83
2022/01/19 14:17:34;;;;;;;22.67;10.57;;;5.40;99.90;;;;;;4967400;28;20047;-81
2022/01/19 14:20:02;;;;;;;24.17;12.23;;;5.30;99.90;;;;;;5057715;28;20042;-82
2022/01/19 14:22:33;;;;;;;21.48;8.52;;;5.30;99.90;;;;;;4952545;28;20034;-79
2022/01/19 14:25:07;;;;;;;17.73;8.45;;;5.30;99.90;;;;;;4977864;28;20648;-84
2022/01/19 14:27:33;;;;;;;23.73;10.32;;;5.20;99.90;;;;;;4951509;28;20145;-81
2022/01/19 14:30:27;;;;;;;16.55;10.70;;;5.20;99.90;;;;;;4986855;28;20129;-83
2022/01/19 14:33:09;;;;;;;13.80;7.38;;;6.10;99.90;;;;;;4978340;28;20059;-78
2022/01/19 14:35:56;;;;;;;11.15;7.10;;;5.20;99.90;;;;;;5059283;28;20055;-80